sensor_id;sensor_type;location;lat;lon;timestamp;temperature;humidity
56478;DHT22;42382;53.210;5.772;2022-08-11T00:00:36;19.20;80.70
56478;DHT22;42382;53.210;5.772;2022-08-11T00:03:07;19.10;81.10
56478;DHT22;42382;53.210;5.772;2022-08-11T00:06:00;19.10;81.00
56478;DHT22;42382;53.210;5.772;2022-08-11T00:08:29;19.10;81.30
56478;DHT22;42382;53.210;5.772;2022-08-11T00:10:59;19.00;81.30
56478;DHT22;42382;53.210;5.772;2022-08-11T00:13:37;19.00;81.40
56478;DHT22;42382;53.210;5.772;2022-08-11T00:16:10;19.00;81.40
56478;DHT22;42382;53.210;5.772;2022-08-11T00:18:42;19.00;81.50
56478;DHT22;42382;53.210;5.772;2022-08-11T00:21:09;19.00;81.50
56478;DHT22;42382;53.210;5.772;2022-08-11T00:23:44;18.90;81.40
56478;DHT22;42382;53.210;5.772;2022-08-11T00:26:12;18.90;81.50
56478;DHT22;42382;53.210;5.772;2022-08-11T00:28:38;18.90;81.60
56478;DHT22;42382;53.210;5.772;2022-08-11T00:31:10;18.80;81.60
56478;DHT22;42382;53.210;5.772;2022-08-11T00:33:44;18.80;81.70
56478;DHT22;42382;53.210;5.772;2022-08-11T00:36:14;18.80;81.60
56478;DHT22;42382;53.210;5.772;2022-08-11T00:38:41;18.80;81.70
56478;DHT22;42382;53.210;5.772;2022-08-11T00:57:43;18.70;80.90
56478;DHT22;42382;53.210;5.772;2022-08-11T01:00:21;18.60;81.20
56478;DHT22;42382;53.210;5.772;2022-08-11T01:03:00;18.60;81.30
56478;DHT22;42382;53.210;5.772;2022-08-11T01:05:44;18.60;81.30
56478;DHT22;42382;53.210;5.772;2022-08-11T01:19:33;18.40;81.50
56478;DHT22;42382;53.210;5.772;2022-08-11T01:36:26;18.40;81.30
56478;DHT22;42382;53.210;5.772;2022-08-11T01:55:51;18.20;81.90
56478;DHT22;42382;53.210;5.772;2022-08-11T01:58:44;18.20;81.80
56478;DHT22;42382;53.210;5.772;2022-08-11T02:04:17;18.20;81.40
56478;DHT22;42382;53.210;5.772;2022-08-11T02:07:03;18.20;81.30
56478;DHT22;42382;53.210;5.772;2022-08-11T02:20:30;18.10;81.50
56478;DHT22;42382;53.210;5.772;2022-08-11T02:23:54;18.10;81.60
56478;DHT22;42382;53.210;5.772;2022-08-11T02:26:25;18.10;81.50
56478;DHT22;42382;53.210;5.772;2022-08-11T02:29:21;18.00;81.80
56478;DHT22;42382;53.210;5.772;2022-08-11T02:34:48;17.90;81.90
56478;DHT22;42382;53.210;5.772;2022-08-11T02:42:29;17.90;81.90
56478;DHT22;42382;53.210;5.772;2022-08-11T02:51:16;17.90;81.80
56478;DHT22;42382;53.210;5.772;2022-08-11T02:54:11;17.90;82.00
56478;DHT22;42382;53.210;5.772;2022-08-11T02:56:44;17.90;81.70
56478;DHT22;42382;53.210;5.772;2022-08-11T03:02:09;17.80;82.10
56478;DHT22;42382;53.210;5.772;2022-08-11T03:12:46;17.80;82.10
56478;DHT22;42382;53.210;5.772;2022-08-11T03:21:34;17.70;82.30
56478;DHT22;42382;53.210;5.772;2022-08-11T03:24:14;17.70;82.30
56478;DHT22;42382;53.210;5.772;2022-08-11T03:27:07;17.70;82.40
56478;DHT22;42382;53.210;5.772;2022-08-11T03:32:31;17.60;82.50
56478;DHT22;42382;53.210;5.772;2022-08-11T03:34:58;17.60;82.50
56478;DHT22;42382;53.210;5.772;2022-08-11T03:37:45;17.60;82.50
56478;DHT22;42382;53.210;5.772;2022-08-11T03:40:24;17.60;82.60
56478;DHT22;42382;53.210;5.772;2022-08-11T03:46:03;17.50;82.70
56478;DHT22;42382;53.210;5.772;2022-08-11T03:49:04;17.50;82.80
56478;DHT22;42382;53.210;5.772;2022-08-11T03:51:44;17.50;82.60
56478;DHT22;42382;53.210;5.772;2022-08-11T03:54:27;17.50;82.90
56478;DHT22;42382;53.210;5.772;2022-08-11T04:13:56;17.40;83.10
56478;DHT22;42382;53.210;5.772;2022-08-11T04:37:42;17.40;83.50
56478;DHT22;42382;53.210;5.772;2022-08-11T04:46:13;17.40;83.80
56478;DHT22;42382;53.210;5.772;2022-08-11T04:49:10;17.40;83.80
56478;DHT22;42382;53.210;5.772;2022-08-11T04:53:04;17.40;83.90
56478;DHT22;42382;53.210;5.772;2022-08-11T04:58:56;17.40;83.80
56478;DHT22;42382;53.210;5.772;2022-08-11T05:07:43;17.40;83.90
56478;DHT22;42382;53.210;5.772;2022-08-11T05:13:08;17.40;84.10
56478;DHT22;42382;53.210;5.772;2022-08-11T05:16:03;17.50;84.00
56478;DHT22;42382;53.210;5.772;2022-08-11T05:18:54;17.50;83.90
56478;DHT22;42382;53.210;5.772;2022-08-11T05:21:41;17.50;84.10
56478;DHT22;42382;53.210;5.772;2022-08-11T05:24:34;17.50;84.00
56478;DHT22;42382;53.210;5.772;2022-08-11T05:27:23;17.50;84.00
56478;DHT22;42382;53.210;5.772;2022-08-11T05:30:11;17.60;83.90
56478;DHT22;42382;53.210;5.772;2022-08-11T05:33:07;17.60;83.80
56478;DHT22;42382;53.210;5.772;2022-08-11T05:36:04;17.60;83.90
56478;DHT22;42382;53.210;5.772;2022-08-11T05:38:34;17.70;83.70
56478;DHT22;42382;53.210;5.772;2022-08-11T05:41:23;17.70;83.80
56478;DHT22;42382;53.210;5.772;2022-08-11T05:44:09;17.70;84.00
56478;DHT22;42382;53.210;5.772;2022-08-11T05:46:55;17.70;83.90
56478;DHT22;42382;53.210;5.772;2022-08-11T05:49:39;17.70;84.00
56478;DHT22;42382;53.210;5.772;2022-08-11T05:52:28;17.80;84.00
56478;DHT22;42382;53.210;5.772;2022-08-11T05:55:14;17.80;84.00
56478;DHT22;42382;53.210;5.772;2022-08-11T05:58:06;17.90;84.00
56478;DHT22;42382;53.210;5.772;2022-08-11T06:00:44;17.90;84.00
56478;DHT22;42382;53.210;5.772;2022-08-11T06:03:19;17.90;83.90
56478;DHT22;42382;53.210;5.772;2022-08-11T06:05:47;17.90;84.00
56478;DHT22;42382;53.210;5.772;2022-08-11T06:08:13;18.00;84.10
56478;DHT22;42382;53.210;5.772;2022-08-11T06:10:42;18.00;84.00
56478;DHT22;42382;53.210;5.772;2022-08-11T06:13:09;18.10;84.10
56478;DHT22;42382;53.210;5.772;2022-08-11T06:15:46;18.10;84.10
56478;DHT22;42382;53.210;5.772;2022-08-11T06:18:12;18.20;84.00
56478;DHT22;42382;53.210;5.772;2022-08-11T06:20:46;18.20;84.10
56478;DHT22;42382;53.210;5.772;2022-08-11T06:23:13;18.20;84.00
56478;DHT22;42382;53.210;5.772;2022-08-11T06:25:42;18.30;84.10
56478;DHT22;42382;53.210;5.772;2022-08-11T06:28:08;18.30;84.10
56478;DHT22;42382;53.210;5.772;2022-08-11T06:30:38;18.30;84.10
56478;DHT22;42382;53.210;5.772;2022-08-11T06:33:13;18.30;84.00
56478;DHT22;42382;53.210;5.772;2022-08-11T06:41:20;18.40;83.70
56478;DHT22;42382;53.210;5.772;2022-08-11T06:44:14;18.40;83.80
56478;DHT22;42382;53.210;5.772;2022-08-11T06:46:41;18.50;83.80
56478;DHT22;42382;53.210;5.772;2022-08-11T06:49:09;18.50;83.70
56478;DHT22;42382;53.210;5.772;2022-08-11T06:52:01;18.60;83.70
56478;DHT22;42382;53.210;5.772;2022-08-11T06:54:31;18.70;83.70
56478;DHT22;42382;53.210;5.772;2022-08-11T06:56:58;18.70;83.70
56478;DHT22;42382;53.210;5.772;2022-08-11T06:59:43;18.70;83.70
56478;DHT22;42382;53.210;5.772;2022-08-11T07:02:33;18.80;83.70
56478;DHT22;42382;53.210;5.772;2022-08-11T07:05:28;18.80;83.60
56478;DHT22;42382;53.210;5.772;2022-08-11T07:08:15;18.90;83.60
56478;DHT22;42382;53.210;5.772;2022-08-11T07:11:18;18.90;83.50
56478;DHT22;42382;53.210;5.772;2022-08-11T07:14:07;19.00;83.10
56478;DHT22;42382;53.210;5.772;2022-08-11T07:16:54;19.00;82.90
56478;DHT22;42382;53.210;5.772;2022-08-11T07:19:27;19.10;82.70
56478;DHT22;42382;53.210;5.772;2022-08-11T07:22:13;19.20;82.70
56478;DHT22;42382;53.210;5.772;2022-08-11T07:25:03;19.30;83.00
56478;DHT22;42382;53.210;5.772;2022-08-11T07:28:04;19.40;82.80
56478;DHT22;42382;53.210;5.772;2022-08-11T07:30:52;19.40;82.30
56478;DHT22;42382;53.210;5.772;2022-08-11T07:33:31;19.60;82.60
56478;DHT22;42382;53.210;5.772;2022-08-11T07:36:04;19.80;83.40
56478;DHT22;42382;53.210;5.772;2022-08-11T07:38:46;21.00;82.80
56478;DHT22;42382;53.210;5.772;2022-08-11T07:41:17;22.30;80.20
56478;DHT22;42382;53.210;5.772;2022-08-11T07:43:46;23.50;77.30
56478;DHT22;42382;53.210;5.772;2022-08-11T07:46:16;24.00;74.70
56478;DHT22;42382;53.210;5.772;2022-08-11T07:49:02;23.70;73.50
56478;DHT22;42382;53.210;5.772;2022-08-11T07:51:47;23.90;72.90
56478;DHT22;42382;53.210;5.772;2022-08-11T07:54:32;24.80;70.00
56478;DHT22;42382;53.210;5.772;2022-08-11T07:56:59;25.70;68.30
56478;DHT22;42382;53.210;5.772;2022-08-11T07:59:26;26.60;66.50
56478;DHT22;42382;53.210;5.772;2022-08-11T08:02:11;27.30;64.20
56478;DHT22;42382;53.210;5.772;2022-08-11T08:04:57;27.90;61.50
56478;DHT22;42382;53.210;5.772;2022-08-11T08:07:42;28.10;58.80
56478;DHT22;42382;53.210;5.772;2022-08-11T08:10:27;28.30;58.30
56478;DHT22;42382;53.210;5.772;2022-08-11T08:13:12;28.70;57.80
56478;DHT22;42382;53.210;5.772;2022-08-11T08:15:56;29.00;56.50
56478;DHT22;42382;53.210;5.772;2022-08-11T08:18:41;29.40;52.90
56478;DHT22;42382;53.210;5.772;2022-08-11T08:21:07;29.60;53.80
56478;DHT22;42382;53.210;5.772;2022-08-11T08:23:44;30.10;52.50
56478;DHT22;42382;53.210;5.772;2022-08-11T08:26:13;30.60;50.70
56478;DHT22;42382;53.210;5.772;2022-08-11T08:29:01;31.00;49.50
56478;DHT22;42382;53.210;5.772;2022-08-11T08:31:46;31.40;48.80
56478;DHT22;42382;53.210;5.772;2022-08-11T08:34:14;31.90;47.20
56478;DHT22;42382;53.210;5.772;2022-08-11T08:36:45;32.30;45.80
56478;DHT22;42382;53.210;5.772;2022-08-11T08:39:12;32.30;44.80
56478;DHT22;42382;53.210;5.772;2022-08-11T08:41:39;32.40;45.10
56478;DHT22;42382;53.210;5.772;2022-08-11T08:44:10;32.70;44.30
56478;DHT22;42382;53.210;5.772;2022-08-11T08:46:42;32.80;43.70
56478;DHT22;42382;53.210;5.772;2022-08-11T08:49:12;33.00;43.20
56478;DHT22;42382;53.210;5.772;2022-08-11T08:51:40;33.10;42.80
56478;DHT22;42382;53.210;5.772;2022-08-11T08:54:11;33.20;41.00
56478;DHT22;42382;53.210;5.772;2022-08-11T08:56:40;33.20;40.60
56478;DHT22;42382;53.210;5.772;2022-08-11T08:59:08;33.40;40.60
56478;DHT22;42382;53.210;5.772;2022-08-11T09:01:52;33.60;39.80
56478;DHT22;42382;53.210;5.772;2022-08-11T09:04:20;33.70;38.10
56478;DHT22;42382;53.210;5.772;2022-08-11T09:06:46;33.80;39.10
56478;DHT22;42382;53.210;5.772;2022-08-11T09:09:13;33.90;39.00
56478;DHT22;42382;53.210;5.772;2022-08-11T09:11:41;34.00;37.80
56478;DHT22;42382;53.210;5.772;2022-08-11T09:14:25;34.10;36.60
56478;DHT22;42382;53.210;5.772;2022-08-11T09:17:14;34.20;36.50
56478;DHT22;42382;53.210;5.772;2022-08-11T09:19:41;34.20;36.30
56478;DHT22;42382;53.210;5.772;2022-08-11T09:22:08;34.30;34.90
56478;DHT22;42382;53.210;5.772;2022-08-11T09:24:52;34.30;34.60
56478;DHT22;42382;53.210;5.772;2022-08-11T09:27:38;34.20;35.10
56478;DHT22;42382;53.210;5.772;2022-08-11T09:30:05;34.10;34.70
56478;DHT22;42382;53.210;5.772;2022-08-11T09:32:33;34.00;34.00
56478;DHT22;42382;53.210;5.772;2022-08-11T09:35:01;34.00;35.10
56478;DHT22;42382;53.210;5.772;2022-08-11T09:37:29;34.00;34.80
56478;DHT22;42382;53.210;5.772;2022-08-11T09:40:15;34.20;35.50
56478;DHT22;42382;53.210;5.772;2022-08-11T09:42:57;34.30;34.30
56478;DHT22;42382;53.210;5.772;2022-08-11T09:45:46;34.30;33.50
56478;DHT22;42382;53.210;5.772;2022-08-11T09:48:20;34.40;33.60
56478;DHT22;42382;53.210;5.772;2022-08-11T09:50:57;34.60;33.30
56478;DHT22;42382;53.210;5.772;2022-08-11T09:53:26;34.80;32.50
56478;DHT22;42382;53.210;5.772;2022-08-11T09:55:54;34.80;32.10
56478;DHT22;42382;53.210;5.772;2022-08-11T09:58:20;34.80;31.70
56478;DHT22;42382;53.210;5.772;2022-08-11T10:00:49;34.90;31.30
56478;DHT22;42382;53.210;5.772;2022-08-11T10:03:19;34.80;30.60
56478;DHT22;42382;53.210;5.772;2022-08-11T10:06:04;34.80;31.00
56478;DHT22;42382;53.210;5.772;2022-08-11T10:08:51;34.90;30.60
56478;DHT22;42382;53.210;5.772;2022-08-11T10:11:21;34.90;32.00
56478;DHT22;42382;53.210;5.772;2022-08-11T10:13:50;35.00;31.60
56478;DHT22;42382;53.210;5.772;2022-08-11T10:16:39;35.20;31.50
56478;DHT22;42382;53.210;5.772;2022-08-11T10:19:05;35.20;31.60
56478;DHT22;42382;53.210;5.772;2022-08-11T10:21:49;35.20;31.50
56478;DHT22;42382;53.210;5.772;2022-08-11T10:24:36;35.20;30.20
56478;DHT22;42382;53.210;5.772;2022-08-11T10:27:21;35.10;31.40
56478;DHT22;42382;53.210;5.772;2022-08-11T10:29:47;35.10;30.80
56478;DHT22;42382;53.210;5.772;2022-08-11T10:32:33;35.10;31.40
56478;DHT22;42382;53.210;5.772;2022-08-11T10:35:19;35.10;31.50
56478;DHT22;42382;53.210;5.772;2022-08-11T10:37:46;35.30;31.60
56478;DHT22;42382;53.210;5.772;2022-08-11T10:40:18;35.30;30.70
56478;DHT22;42382;53.210;5.772;2022-08-11T10:42:48;35.40;30.30
56478;DHT22;42382;53.210;5.772;2022-08-11T10:45:39;35.30;29.50
56478;DHT22;42382;53.210;5.772;2022-08-11T10:48:43;35.20;30.50
56478;DHT22;42382;53.210;5.772;2022-08-11T10:51:10;35.10;31.10
56478;DHT22;42382;53.210;5.772;2022-08-11T10:53:44;35.30;31.50
56478;DHT22;42382;53.210;5.772;2022-08-11T10:56:33;35.40;30.40
56478;DHT22;42382;53.210;5.772;2022-08-11T10:59:18;35.40;30.80
56478;DHT22;42382;53.210;5.772;2022-08-11T11:01:44;35.40;30.30
56478;DHT22;42382;53.210;5.772;2022-08-11T11:04:14;35.40;29.50
56478;DHT22;42382;53.210;5.772;2022-08-11T11:07:05;35.40;30.20
56478;DHT22;42382;53.210;5.772;2022-08-11T11:09:38;35.40;28.90
56478;DHT22;42382;53.210;5.772;2022-08-11T11:12:12;35.30;29.00
56478;DHT22;42382;53.210;5.772;2022-08-11T11:14:59;35.20;29.70
56478;DHT22;42382;53.210;5.772;2022-08-11T11:17:58;35.10;30.20
56478;DHT22;42382;53.210;5.772;2022-08-11T11:23:08;35.30;29.20
56478;DHT22;42382;53.210;5.772;2022-08-11T11:28:24;35.50;29.50
56478;DHT22;42382;53.210;5.772;2022-08-11T11:31:22;35.40;28.60
56478;DHT22;42382;53.210;5.772;2022-08-11T11:37:00;35.20;29.20
56478;DHT22;42382;53.210;5.772;2022-08-11T11:39:28;35.30;29.90
56478;DHT22;42382;53.210;5.772;2022-08-11T11:41:58;35.30;29.50
56478;DHT22;42382;53.210;5.772;2022-08-11T11:44:26;35.40;28.90
56478;DHT22;42382;53.210;5.772;2022-08-11T11:46:52;35.40;29.30
56478;DHT22;42382;53.210;5.772;2022-08-11T11:49:21;35.50;29.30
56478;DHT22;42382;53.210;5.772;2022-08-11T11:51:49;35.40;29.00
56478;DHT22;42382;53.210;5.772;2022-08-11T11:54:21;35.30;29.30
56478;DHT22;42382;53.210;5.772;2022-08-11T11:56:48;35.30;29.00
56478;DHT22;42382;53.210;5.772;2022-08-11T11:59:21;35.10;29.20
56478;DHT22;42382;53.210;5.772;2022-08-11T12:02:09;35.00;29.10
56478;DHT22;42382;53.210;5.772;2022-08-11T12:04:43;34.70;30.10
56478;DHT22;42382;53.210;5.772;2022-08-11T12:07:11;34.50;29.40
56478;DHT22;42382;53.210;5.772;2022-08-11T12:09:56;34.30;29.70
56478;DHT22;42382;53.210;5.772;2022-08-11T12:12:22;34.10;29.80
56478;DHT22;42382;53.210;5.772;2022-08-11T12:15:07;33.90;30.10
56478;DHT22;42382;53.210;5.772;2022-08-11T12:17:34;33.70;30.00
56478;DHT22;42382;53.210;5.772;2022-08-11T12:20:01;33.60;30.80
56478;DHT22;42382;53.210;5.772;2022-08-11T12:22:28;33.50;30.60
56478;DHT22;42382;53.210;5.772;2022-08-11T12:25:13;33.40;30.00
56478;DHT22;42382;53.210;5.772;2022-08-11T12:27:58;33.40;31.00
56478;DHT22;42382;53.210;5.772;2022-08-11T12:30:24;33.40;30.90
56478;DHT22;42382;53.210;5.772;2022-08-11T12:32:50;33.40;30.80
56478;DHT22;42382;53.210;5.772;2022-08-11T12:35:16;33.40;30.70
56478;DHT22;42382;53.210;5.772;2022-08-11T12:37:44;33.40;32.00
56478;DHT22;42382;53.210;5.772;2022-08-11T12:40:14;33.40;30.60
56478;DHT22;42382;53.210;5.772;2022-08-11T12:43:02;33.30;32.20
56478;DHT22;42382;53.210;5.772;2022-08-11T12:45:47;33.20;32.70
56478;DHT22;42382;53.210;5.772;2022-08-11T12:48:20;33.10;31.10
56478;DHT22;42382;53.210;5.772;2022-08-11T12:51:14;33.10;31.20
56478;DHT22;42382;53.210;5.772;2022-08-11T12:56:27;33.00;29.60
56478;DHT22;42382;53.210;5.772;2022-08-11T12:59:15;32.90;29.70
56478;DHT22;42382;53.210;5.772;2022-08-11T13:02:01;32.70;30.50
56478;DHT22;42382;53.210;5.772;2022-08-11T13:04:46;32.70;30.70
56478;DHT22;42382;53.210;5.772;2022-08-11T13:07:17;32.70;31.20
56478;DHT22;42382;53.210;5.772;2022-08-11T13:09:43;32.70;35.20
56478;DHT22;42382;53.210;5.772;2022-08-11T13:12:09;32.50;37.20
56478;DHT22;42382;53.210;5.772;2022-08-11T13:14:54;32.40;38.00
56478;DHT22;42382;53.210;5.772;2022-08-11T13:17:20;32.20;38.40
56478;DHT22;42382;53.210;5.772;2022-08-11T13:19:47;31.90;38.90
56478;DHT22;42382;53.210;5.772;2022-08-11T13:22:17;31.90;39.40
56478;DHT22;42382;53.210;5.772;2022-08-11T13:24:43;32.00;39.30
56478;DHT22;42382;53.210;5.772;2022-08-11T13:27:10;31.90;39.20
56478;DHT22;42382;53.210;5.772;2022-08-11T13:29:40;31.90;39.40
56478;DHT22;42382;53.210;5.772;2022-08-11T13:32:07;31.80;39.90
56478;DHT22;42382;53.210;5.772;2022-08-11T13:34:33;31.80;40.10
56478;DHT22;42382;53.210;5.772;2022-08-11T13:37:06;31.80;40.30
56478;DHT22;42382;53.210;5.772;2022-08-11T13:39:34;31.90;40.20
56478;DHT22;42382;53.210;5.772;2022-08-11T13:42:02;31.80;38.80
56478;DHT22;42382;53.210;5.772;2022-08-11T13:44:29;31.80;39.20
56478;DHT22;42382;53.210;5.772;2022-08-11T13:46:58;31.80;39.60
56478;DHT22;42382;53.210;5.772;2022-08-11T13:49:25;31.80;38.60
56478;DHT22;42382;53.210;5.772;2022-08-11T13:51:53;31.70;39.30
56478;DHT22;42382;53.210;5.772;2022-08-11T13:54:25;31.80;39.50
56478;DHT22;42382;53.210;5.772;2022-08-11T13:56:54;31.80;38.70
56478;DHT22;42382;53.210;5.772;2022-08-11T13:59:22;31.80;38.60
56478;DHT22;42382;53.210;5.772;2022-08-11T14:01:56;31.80;38.90
56478;DHT22;42382;53.210;5.772;2022-08-11T14:04:30;31.90;38.80
56478;DHT22;42382;53.210;5.772;2022-08-11T14:06:58;32.00;38.70
56478;DHT22;42382;53.210;5.772;2022-08-11T14:09:34;32.00;37.90
56478;DHT22;42382;53.210;5.772;2022-08-11T14:12:05;31.90;37.90
56478;DHT22;42382;53.210;5.772;2022-08-11T14:15:00;31.80;38.40
56478;DHT22;42382;53.210;5.772;2022-08-11T14:17:28;31.70;38.90
56478;DHT22;42382;53.210;5.772;2022-08-11T14:19:56;31.70;39.00
56478;DHT22;42382;53.210;5.772;2022-08-11T14:22:24;31.60;38.60
56478;DHT22;42382;53.210;5.772;2022-08-11T14:24:50;31.50;39.00
56478;DHT22;42382;53.210;5.772;2022-08-11T14:27:17;31.40;39.20
56478;DHT22;42382;53.210;5.772;2022-08-11T14:29:51;31.40;39.50
56478;DHT22;42382;53.210;5.772;2022-08-11T14:32:19;31.40;39.40
56478;DHT22;42382;53.210;5.772;2022-08-11T14:34:47;31.40;39.40
56478;DHT22;42382;53.210;5.772;2022-08-11T14:37:22;31.40;39.30
56478;DHT22;42382;53.210;5.772;2022-08-11T14:39:58;31.30;39.40
56478;DHT22;42382;53.210;5.772;2022-08-11T14:42:25;31.20;38.80
56478;DHT22;42382;53.210;5.772;2022-08-11T14:45:15;31.20;39.40
56478;DHT22;42382;53.210;5.772;2022-08-11T14:48:03;31.10;38.70
56478;DHT22;42382;53.210;5.772;2022-08-11T14:50:31;31.10;39.10
56478;DHT22;42382;53.210;5.772;2022-08-11T14:53:00;31.10;38.70
56478;DHT22;42382;53.210;5.772;2022-08-11T14:55:28;31.10;38.80
56478;DHT22;42382;53.210;5.772;2022-08-11T14:58:16;31.00;38.30
56478;DHT22;42382;53.210;5.772;2022-08-11T15:00:43;30.90;38.60
56478;DHT22;42382;53.210;5.772;2022-08-11T15:03:13;30.80;38.70
56478;DHT22;42382;53.210;5.772;2022-08-11T15:05:50;30.80;39.30
56478;DHT22;42382;53.210;5.772;2022-08-11T15:08:17;30.90;38.90
56478;DHT22;42382;53.210;5.772;2022-08-11T15:10:45;30.90;39.60
56478;DHT22;42382;53.210;5.772;2022-08-11T15:13:14;31.00;39.60
56478;DHT22;42382;53.210;5.772;2022-08-11T15:15:41;31.00;39.30
56478;DHT22;42382;53.210;5.772;2022-08-11T15:18:25;31.00;39.70
56478;DHT22;42382;53.210;5.772;2022-08-11T15:20:51;31.10;39.80
56478;DHT22;42382;53.210;5.772;2022-08-11T15:23:39;31.10;38.90
56478;DHT22;42382;53.210;5.772;2022-08-11T15:26:43;31.10;39.00
56478;DHT22;42382;53.210;5.772;2022-08-11T15:29:29;31.00;40.00
56478;DHT22;42382;53.210;5.772;2022-08-11T15:32:15;30.90;39.60
56478;DHT22;42382;53.210;5.772;2022-08-11T15:34:58;30.90;40.00
56478;DHT22;42382;53.210;5.772;2022-08-11T15:37:44;30.90;39.70
56478;DHT22;42382;53.210;5.772;2022-08-11T15:40:21;30.80;40.30
56478;DHT22;42382;53.210;5.772;2022-08-11T15:43:19;30.80;39.00
56478;DHT22;42382;53.210;5.772;2022-08-11T15:46:12;30.80;40.20
56478;DHT22;42382;53.210;5.772;2022-08-11T15:48:58;30.70;38.60
56478;DHT22;42382;53.210;5.772;2022-08-11T15:51:32;30.70;38.60
56478;DHT22;42382;53.210;5.772;2022-08-11T15:54:03;30.60;39.30
56478;DHT22;42382;53.210;5.772;2022-08-11T15:56:31;30.50;39.90
56478;DHT22;42382;53.210;5.772;2022-08-11T15:58:59;30.40;40.20
56478;DHT22;42382;53.210;5.772;2022-08-11T16:01:44;30.50;39.50
56478;DHT22;42382;53.210;5.772;2022-08-11T16:04:31;30.50;39.40
56478;DHT22;42382;53.210;5.772;2022-08-11T16:07:05;30.50;39.50
56478;DHT22;42382;53.210;5.772;2022-08-11T16:09:41;30.40;39.90
56478;DHT22;42382;53.210;5.772;2022-08-11T16:12:14;30.30;40.60
56478;DHT22;42382;53.210;5.772;2022-08-11T16:14:43;30.30;40.70
56478;DHT22;42382;53.210;5.772;2022-08-11T16:17:32;30.30;41.30
56478;DHT22;42382;53.210;5.772;2022-08-11T16:20:00;30.30;41.10
56478;DHT22;42382;53.210;5.772;2022-08-11T16:22:29;30.20;41.10
56478;DHT22;42382;53.210;5.772;2022-08-11T16:25:09;30.30;41.00
56478;DHT22;42382;53.210;5.772;2022-08-11T16:27:41;30.30;41.30
56478;DHT22;42382;53.210;5.772;2022-08-11T16:30:08;30.30;40.70
56478;DHT22;42382;53.210;5.772;2022-08-11T16:32:37;30.30;40.70
56478;DHT22;42382;53.210;5.772;2022-08-11T16:35:09;30.20;41.00
56478;DHT22;42382;53.210;5.772;2022-08-11T16:37:55;30.10;40.80
56478;DHT22;42382;53.210;5.772;2022-08-11T16:40:42;30.10;40.90
56478;DHT22;42382;53.210;5.772;2022-08-11T16:43:11;30.10;41.20
56478;DHT22;42382;53.210;5.772;2022-08-11T16:45:57;30.20;41.30
56478;DHT22;42382;53.210;5.772;2022-08-11T16:49:04;30.30;41.50
56478;DHT22;42382;53.210;5.772;2022-08-11T16:51:30;30.30;40.80
56478;DHT22;42382;53.210;5.772;2022-08-11T16:53:56;30.20;40.10
56478;DHT22;42382;53.210;5.772;2022-08-11T16:56:44;30.30;40.00
56478;DHT22;42382;53.210;5.772;2022-08-11T16:59:32;30.30;40.00
56478;DHT22;42382;53.210;5.772;2022-08-11T17:02:14;30.30;39.90
56478;DHT22;42382;53.210;5.772;2022-08-11T17:05:02;30.20;39.70
56478;DHT22;42382;53.210;5.772;2022-08-11T17:07:50;30.10;40.60
56478;DHT22;42382;53.210;5.772;2022-08-11T17:10:49;30.10;40.10
56478;DHT22;42382;53.210;5.772;2022-08-11T17:13:49;30.10;38.70
56478;DHT22;42382;53.210;5.772;2022-08-11T17:16:21;30.10;39.60
56478;DHT22;42382;53.210;5.772;2022-08-11T17:24:09;29.70;40.20
56478;DHT22;42382;53.210;5.772;2022-08-11T17:26:40;29.50;40.20
56478;DHT22;42382;53.210;5.772;2022-08-11T17:29:43;29.40;40.70
56478;DHT22;42382;53.210;5.772;2022-08-11T17:32:15;29.30;40.50
56478;DHT22;42382;53.210;5.772;2022-08-11T17:35:09;29.10;41.30
56478;DHT22;42382;53.210;5.772;2022-08-11T17:38:16;28.90;41.90
56478;DHT22;42382;53.210;5.772;2022-08-11T17:40:57;28.70;42.40
56478;DHT22;42382;53.210;5.772;2022-08-11T17:43:44;28.60;42.50
56478;DHT22;42382;53.210;5.772;2022-08-11T17:46:28;28.50;43.50
56478;DHT22;42382;53.210;5.772;2022-08-11T17:49:13;28.30;43.60
56478;DHT22;42382;53.210;5.772;2022-08-11T17:51:42;28.20;43.80
56478;DHT22;42382;53.210;5.772;2022-08-11T17:54:29;28.10;44.70
56478;DHT22;42382;53.210;5.772;2022-08-11T17:57:14;27.90;45.00
56478;DHT22;42382;53.210;5.772;2022-08-11T17:59:59;27.90;45.70
56478;DHT22;42382;53.210;5.772;2022-08-11T18:02:33;27.80;46.00
56478;DHT22;42382;53.210;5.772;2022-08-11T18:05:19;27.70;45.80
56478;DHT22;42382;53.210;5.772;2022-08-11T18:07:45;27.60;46.30
56478;DHT22;42382;53.210;5.772;2022-08-11T18:10:32;27.60;46.60
56478;DHT22;42382;53.210;5.772;2022-08-11T18:13:19;27.40;46.80
56478;DHT22;42382;53.210;5.772;2022-08-11T18:16:04;27.30;47.30
56478;DHT22;42382;53.210;5.772;2022-08-11T18:18:49;27.30;47.20
56478;DHT22;42382;53.210;5.772;2022-08-11T18:21:34;27.20;47.50
56478;DHT22;42382;53.210;5.772;2022-08-11T18:24:22;27.20;47.10
56478;DHT22;42382;53.210;5.772;2022-08-11T18:27:09;27.20;47.00
56478;DHT22;42382;53.210;5.772;2022-08-11T18:29:57;27.10;46.90
56478;DHT22;42382;53.210;5.772;2022-08-11T18:32:46;27.00;47.00
56478;DHT22;42382;53.210;5.772;2022-08-11T18:35:32;27.00;47.30
56478;DHT22;42382;53.210;5.772;2022-08-11T18:38:17;26.90;47.70
56478;DHT22;42382;53.210;5.772;2022-08-11T18:41:04;26.90;48.30
56478;DHT22;42382;53.210;5.772;2022-08-11T18:43:50;26.80;48.70
56478;DHT22;42382;53.210;5.772;2022-08-11T18:46:36;26.70;49.00
56478;DHT22;42382;53.210;5.772;2022-08-11T18:49:24;26.70;49.20
56478;DHT22;42382;53.210;5.772;2022-08-11T18:52:08;26.60;49.20
56478;DHT22;42382;53.210;5.772;2022-08-11T18:54:57;26.50;49.30
56478;DHT22;42382;53.210;5.772;2022-08-11T18:57:45;26.30;49.60
56478;DHT22;42382;53.210;5.772;2022-08-11T19:00:31;26.20;49.80
56478;DHT22;42382;53.210;5.772;2022-08-11T19:03:17;26.10;50.20
56478;DHT22;42382;53.210;5.772;2022-08-11T19:06:04;25.90;50.70
56478;DHT22;42382;53.210;5.772;2022-08-11T19:08:56;25.80;50.90
56478;DHT22;42382;53.210;5.772;2022-08-11T19:11:43;25.70;51.20
56478;DHT22;42382;53.210;5.772;2022-08-11T19:14:29;25.40;51.70
56478;DHT22;42382;53.210;5.772;2022-08-11T19:17:15;25.40;52.00
56478;DHT22;42382;53.210;5.772;2022-08-11T19:20:06;25.20;52.40
56478;DHT22;42382;53.210;5.772;2022-08-11T19:22:53;25.20;52.80
56478;DHT22;42382;53.210;5.772;2022-08-11T19:25:39;25.10;53.00
56478;DHT22;42382;53.210;5.772;2022-08-11T19:28:25;25.10;53.20
56478;DHT22;42382;53.210;5.772;2022-08-11T19:31:10;24.90;53.50
56478;DHT22;42382;53.210;5.772;2022-08-11T19:33:55;24.90;53.90
56478;DHT22;42382;53.210;5.772;2022-08-11T19:36:41;24.70;54.30
56478;DHT22;42382;53.210;5.772;2022-08-11T19:39:27;24.60;54.70
56478;DHT22;42382;53.210;5.772;2022-08-11T19:42:12;24.60;55.20
56478;DHT22;42382;53.210;5.772;2022-08-11T19:44:59;24.40;55.50
56478;DHT22;42382;53.210;5.772;2022-08-11T19:47:44;24.40;56.00